Time;durP1;ratioP1;P1;durP2;ratioP2;P2;SDS_P1;SDS_P2;PMS_P1;PMS_P2;Temp;Humidity;BMP_temperature;BMP_pressure;BME280_temperature;BME280_humidity;BME280_pressure;Samples;Min_cycle;Max_cycle;Signal;HPM_P1;HPM_P2
2022/03/23 00:02:14;;;;;;;2.90;0.90;;;5.80;95.80;;;;;;4992399;28;21175;-73
2022/03/23 00:04:40;;;;;;;0.40;0.30;;;5.90;96.00;;;;;;4993259;28;20383;-74
2022/03/23 00:07:06;;;;;;;0.60;0.60;;;5.90;95.80;;;;;;4990699;28;20489;-73
2022/03/23 00:09:32;;;;;;;0.40;0.20;;;5.90;95.70;;;;;;4999006;28;20417;-73
2022/03/23 00:11:58;;;;;;;0.40;0.20;;;5.80;96.40;;;;;;5012691;28;20424;-74
2022/03/23 00:14:24;;;;;;;0.50;0.50;;;5.70;96.00;;;;;;5012168;28;20471;-73
2022/03/23 00:16:50;;;;;;;0.50;0.50;;;5.80;96.30;;;;;;5013146;28;20393;-73
2022/03/23 00:19:17;;;;;;;0.40;0.30;;;5.80;96.20;;;;;;5011866;28;20397;-74
2022/03/23 00:21:43;;;;;;;0.40;0.20;;;5.80;96.20;;;;;;5012491;28;20916;-74
2022/03/23 00:24:09;;;;;;;0.40;0.20;;;5.80;96.00;;;;;;5012378;28;20412;-74
2022/03/23 00:26:34;;;;;;;0.40;0.20;;;5.80;95.90;;;;;;5011889;28;20419;-74
2022/03/23 00:29:00;;;;;;;0.40;0.20;;;5.80;96.00;;;;;;5012411;28;20472;-74
2022/03/23 00:31:26;;;;;;;1.00;0.85;;;5.80;96.20;;;;;;5011519;28;20413;-74
2022/03/23 00:33:54;;;;;;;0.40;0.20;;;5.70;96.30;;;;;;5012179;28;20412;-74
2022/03/23 00:36:24;;;;;;;0.40;0.30;;;5.70;96.30;;;;;;5011852;28;20376;-74
2022/03/23 00:38:50;;;;;;;0.40;0.20;;;5.70;96.50;;;;;;5012314;28;20427;-74
2022/03/23 00:41:17;;;;;;;0.40;0.20;;;5.70;96.50;;;;;;5011375;28;20917;-74
2022/03/23 00:43:43;;;;;;;0.40;0.20;;;5.70;96.20;;;;;;5010012;28;20982;-74
2022/03/23 00:46:09;;;;;;;0.70;0.60;;;5.70;96.80;;;;;;5010798;28;20585;-74
2022/03/23 00:48:34;;;;;;;0.40;0.20;;;5.50;97.30;;;;;;5010883;28;20489;-73
2022/03/23 00:51:00;;;;;;;0.52;0.52;;;5.70;96.80;;;;;;5011648;28;20955;-74
2022/03/23 00:53:26;;;;;;;0.50;0.50;;;5.50;96.80;;;;;;5012233;28;20381;-73
2022/03/23 00:55:52;;;;;;;0.47;0.43;;;5.60;97.40;;;;;;5011425;28;20861;-73
2022/03/23 00:58:17;;;;;;;0.40;0.20;;;5.70;97.10;;;;;;5012120;28;20884;-74
2022/03/23 01:00:45;;;;;;;0.40;0.27;;;5.70;96.80;;;;;;5011422;28;20393;-74
2022/03/23 01:03:12;;;;;;;1.40;1.30;;;5.60;96.60;;;;;;5011670;28;20416;-74
2022/03/23 01:05:38;;;;;;;1.10;1.10;;;5.60;96.80;;;;;;5011527;28;20472;-74
2022/03/23 01:08:04;;;;;;;3.20;0.90;;;5.50;97.30;;;;;;5010572;28;20403;-74
2022/03/23 01:10:30;;;;;;;0.40;0.20;;;5.50;97.30;;;;;;4997161;28;20898;-74
2022/03/23 01:12:56;;;;;;;0.40;0.20;;;5.40;97.80;;;;;;4991008;28;20402;-74
2022/03/23 01:15:22;;;;;;;0.40;0.28;;;5.40;97.80;;;;;;4992248;28;20382;-73
2022/03/23 01:17:49;;;;;;;0.40;0.30;;;5.40;97.80;;;;;;4991496;28;20374;-73
2022/03/23 01:20:16;;;;;;;0.40;0.40;;;5.30;98.10;;;;;;4991916;28;20391;-73
2022/03/23 01:22:43;;;;;;;0.40;0.20;;;5.30;98.60;;;;;;4992077;28;20397;-73
2022/03/23 01:25:11;;;;;;;0.40;0.20;;;5.30;99.00;;;;;;4990635;28;20883;-73
2022/03/23 01:27:38;;;;;;;0.40;0.20;;;5.20;99.10;;;;;;4991544;28;20786;-74
2022/03/23 01:30:06;;;;;;;0.40;0.30;;;5.20;99.20;;;;;;4990941;28;20445;-74
2022/03/23 01:32:33;;;;;;;0.40;0.20;;;5.20;99.30;;;;;;4991721;28;21267;-73
2022/03/23 01:34:58;;;;;;;0.40;0.20;;;5.20;98.60;;;;;;4991325;28;20393;-73
2022/03/23 01:37:24;;;;;;;0.40;0.20;;;5.30;98.30;;;;;;4991222;28;20413;-74
2022/03/23 01:39:50;;;;;;;0.63;0.63;;;5.20;98.60;;;;;;4991654;28;20401;-73
2022/03/23 01:42:16;;;;;;;0.40;0.20;;;5.20;98.90;;;;;;4990503;28;20386;-74
2022/03/23 01:44:41;;;;;;;0.40;0.30;;;5.20;98.00;;;;;;4991131;28;20383;-74
2022/03/23 01:47:08;;;;;;;0.40;0.20;;;5.20;98.50;;;;;;4991286;28;20401;-74
2022/03/23 01:49:35;;;;;;;0.40;0.20;;;5.20;98.40;;;;;;4990895;28;20410;-74
2022/03/23 01:52:04;;;;;;;0.40;0.20;;;5.20;98.80;;;;;;4990930;28;20429;-74
2022/03/23 01:54:29;;;;;;;0.40;0.20;;;5.10;99.40;;;;;;4990429;28;20390;-74
2022/03/23 01:56:57;;;;;;;0.40;0.20;;;5.10;99.10;;;;;;4991266;28;20402;-73
2022/03/23 01:59:23;;;;;;;0.40;0.20;;;5.10;99.10;;;;;;4990317;28;20382;-73
2022/03/23 02:01:49;;;;;;;0.70;0.70;;;5.10;98.80;;;;;;4990796;28;20406;-74
2022/03/23 02:04:16;;;;;;;0.50;0.50;;;5.10;99.10;;;;;;4990659;28;20759;-74
2022/03/23 02:06:41;;;;;;;0.40;0.30;;;5.10;98.80;;;;;;4989885;28;20390;-73
2022/03/23 02:09:07;;;;;;;0.50;0.50;;;5.00;99.10;;;;;;4993080;28;20417;-73
2022/03/23 02:11:33;;;;;;;0.40;0.20;;;5.00;99.20;;;;;;5008518;28;20416;-73
2022/03/23 02:14:00;;;;;;;0.40;0.20;;;5.00;99.20;;;;;;5010302;28;20377;-74
2022/03/23 02:16:26;;;;;;;0.40;0.20;;;5.00;99.20;;;;;;5010618;28;20857;-74
2022/03/23 02:18:51;;;;;;;0.40;0.20;;;4.90;98.90;;;;;;5009780;28;20400;-74
2022/03/23 02:21:18;;;;;;;0.40;0.20;;;5.00;99.10;;;;;;5010272;28;20389;-74
2022/03/23 02:23:44;;;;;;;1.00;1.00;;;5.00;98.70;;;;;;5008457;28;20446;-74
2022/03/23 02:26:11;;;;;;;0.43;0.28;;;5.00;98.40;;;;;;5010822;28;20475;-74
2022/03/23 02:28:37;;;;;;;0.40;0.20;;;5.10;98.60;;;;;;5010463;28;20381;-73
2022/03/23 02:31:04;;;;;;;0.40;0.20;;;5.10;98.10;;;;;;5009903;28;20420;-73
2022/03/23 02:33:30;;;;;;;0.40;0.30;;;5.00;98.00;;;;;;5010279;28;20384;-73
2022/03/23 02:35:55;;;;;;;0.43;0.43;;;4.90;97.80;;;;;;5009702;28;20381;-73
2022/03/23 02:38:21;;;;;;;0.40;0.30;;;5.00;98.50;;;;;;5010473;28;20753;-73
2022/03/23 02:40:47;;;;;;;0.50;0.40;;;5.10;98.90;;;;;;5010142;28;20391;-73
2022/03/23 02:43:14;;;;;;;0.40;0.40;;;5.00;98.70;;;;;;5009820;28;20388;-74
2022/03/23 02:45:39;;;;;;;0.50;0.50;;;4.90;98.90;;;;;;5010489;28;20391;-73
2022/03/23 02:48:06;;;;;;;0.40;0.30;;;4.80;99.20;;;;;;5009847;28;20408;-73
2022/03/23 02:50:33;;;;;;;0.50;0.50;;;4.70;99.90;;;;;;5010292;28;20483;-73
2022/03/23 03:01:55;;;;;;;1.70;1.60;;;4.50;99.90;;;;;;5010160;28;20380;-73
2022/03/23 03:04:21;;;;;;;0.40;0.30;;;4.50;99.90;;;;;;5010713;28;20772;-74
2022/03/23 03:06:48;;;;;;;0.55;0.47;;;4.40;99.90;;;;;;5013798;28;20400;-73
2022/03/23 03:09:15;;;;;;;0.40;0.20;;;4.50;99.90;;;;;;5009224;28;20452;-73
2022/03/23 03:11:43;;;;;;;0.80;0.70;;;4.50;99.90;;;;;;4993129;28;20841;-73
2022/03/23 03:14:09;;;;;;;0.40;0.20;;;4.40;99.80;;;;;;4992845;28;20417;-73
2022/03/23 03:16:34;;;;;;;0.50;0.50;;;4.50;99.60;;;;;;4993484;28;20378;-73
2022/03/23 03:19:00;;;;;;;0.40;0.20;;;4.40;99.70;;;;;;4994382;28;20577;-73
2022/03/23 03:21:26;;;;;;;0.40;0.20;;;4.50;99.30;;;;;;4992838;28;20927;-73
2022/03/23 03:23:52;;;;;;;0.40;0.20;;;4.40;99.50;;;;;;4994249;28;20421;-74
2022/03/23 03:26:18;;;;;;;0.40;0.27;;;4.50;99.50;;;;;;4994322;28;20415;-73
2022/03/23 03:28:44;;;;;;;0.40;0.30;;;4.50;99.50;;;;;;4993052;28;20382;-73
2022/03/23 03:31:12;;;;;;;0.80;0.70;;;4.50;98.90;;;;;;4993713;28;20465;-73
2022/03/23 03:33:39;;;;;;;0.40;0.30;;;4.50;98.70;;;;;;4993162;28;20378;-73
2022/03/23 03:36:05;;;;;;;0.40;0.40;;;4.50;98.80;;;;;;4993059;28;20387;-73
2022/03/23 03:38:32;;;;;;;1.10;0.60;;;4.50;98.70;;;;;;4993817;28;20418;-73
2022/03/23 03:40:58;;;;;;;0.90;0.90;;;4.50;98.70;;;;;;4993766;28;20391;-73
2022/03/23 03:43:26;;;;;;;0.40;0.20;;;4.50;98.90;;;;;;4993231;28;20406;-74
2022/03/23 03:45:52;;;;;;;0.40;0.20;;;4.50;98.40;;;;;;4992745;28;20379;-73
2022/03/23 03:48:19;;;;;;;1.47;1.03;;;4.40;99.10;;;;;;4993485;28;20445;-73
2022/03/23 03:50:45;;;;;;;1.00;1.00;;;4.30;99.30;;;;;;4992753;28;20425;-73
2022/03/23 03:53:11;;;;;;;3.30;1.20;;;4.30;99.90;;;;;;4993297;28;20386;-73
2022/03/23 03:55:37;;;;;;;1.00;1.00;;;4.30;99.70;;;;;;4993169;28;20444;-73
2022/03/23 03:58:04;;;;;;;0.40;0.30;;;4.30;99.90;;;;;;4992220;28;20394;-73
2022/03/23 04:00:30;;;;;;;0.70;0.60;;;4.30;99.90;;;;;;4993439;28;20400;-73
2022/03/23 04:02:57;;;;;;;0.40;0.20;;;4.10;99.90;;;;;;4991192;28;20755;-73
2022/03/23 04:05:23;;;;;;;1.40;0.80;;;4.10;99.90;;;;;;4991993;28;20444;-74
2022/03/23 04:07:49;;;;;;;0.40;0.20;;;4.10;99.90;;;;;;4992757;28;20716;-73
2022/03/23 04:10:15;;;;;;;0.60;0.60;;;4.10;99.90;;;;;;4991991;28;20410;-73
2022/03/23 04:12:41;;;;;;;0.40;0.30;;;4.20;99.80;;;;;;4992126;28;20402;-73
2022/03/23 04:15:07;;;;;;;0.40;0.20;;;4.10;99.90;;;;;;4991977;28;20863;-74
2022/03/23 04:17:33;;;;;;;0.40;0.20;;;4.10;99.80;;;;;;4992545;28;20391;-73
2022/03/23 04:19:59;;;;;;;0.40;0.20;;;3.90;99.90;;;;;;4992826;28;20474;-73
2022/03/23 04:22:24;;;;;;;0.40;0.20;;;4.00;99.90;;;;;;4992110;28;20485;-73
2022/03/23 04:24:50;;;;;;;0.43;0.37;;;4.00;99.90;;;;;;4992717;28;20752;-73
2022/03/23 04:27:16;;;;;;;0.40;0.20;;;3.90;99.90;;;;;;4991964;28;20394;-73
2022/03/23 04:29:41;;;;;;;0.40;0.20;;;3.90;99.90;;;;;;4992909;28;20391;-73
2022/03/23 04:32:09;;;;;;;0.40;0.20;;;3.80;99.90;;;;;;4992555;28;20413;-73
2022/03/23 04:34:34;;;;;;;0.50;0.50;;;3.70;99.90;;;;;;4992262;28;20416;-73
2022/03/23 04:37:01;;;;;;;0.40;0.23;;;3.70;99.90;;;;;;4992778;28;20425;-73
2022/03/23 04:39:27;;;;;;;0.70;0.70;;;3.70;99.90;;;;;;4992080;28;20394;-73
2022/03/23 04:41:52;;;;;;;0.40;0.40;;;3.90;99.90;;;;;;4993390;28;20401;-74
2022/03/23 04:44:18;;;;;;;0.40;0.30;;;3.90;99.90;;;;;;4992505;28;20394;-73
2022/03/23 04:46:44;;;;;;;0.70;0.70;;;4.00;99.90;;;;;;4996333;28;20404;-74
2022/03/23 04:49:10;;;;;;;0.40;0.20;;;4.10;99.90;;;;;;5011565;28;20884;-73
2022/03/23 04:51:36;;;;;;;0.40;0.30;;;4.20;99.90;;;;;;5009200;28;20408;-73
2022/03/23 04:54:02;;;;;;;0.40;0.30;;;4.20;99.90;;;;;;4993160;28;20383;-73
2022/03/23 04:56:28;;;;;;;0.40;0.20;;;4.10;99.90;;;;;;4991502;28;20558;-73
2022/03/23 04:58:54;;;;;;;0.40;0.20;;;4.10;99.90;;;;;;4991968;28;20395;-73
2022/03/23 05:01:21;;;;;;;0.40;0.20;;;4.20;99.90;;;;;;4992628;28;20402;-73
2022/03/23 05:03:47;;;;;;;0.50;0.50;;;4.20;99.90;;;;;;4991833;28;20383;-73
2022/03/23 05:06:12;;;;;;;0.40;0.20;;;4.20;99.90;;;;;;4992531;28;20379;-73
2022/03/23 05:08:38;;;;;;;0.40;0.20;;;4.20;99.90;;;;;;4991174;28;20465;-72
2022/03/23 05:11:04;;;;;;;0.40;0.22;;;4.30;99.90;;;;;;5006757;28;20421;-74
2022/03/23 05:13:30;;;;;;;0.40;0.20;;;4.30;99.90;;;;;;4991422;28;20449;-73
2022/03/23 05:15:55;;;;;;;0.70;0.70;;;4.30;99.90;;;;;;4991720;28;20418;-73
2022/03/23 05:18:21;;;;;;;0.40;0.20;;;4.20;99.90;;;;;;4992267;28;20418;-73
2022/03/23 05:20:48;;;;;;;0.60;0.60;;;4.10;99.90;;;;;;4992287;28;20747;-73
2022/03/23 05:23:14;;;;;;;0.40;0.30;;;4.10;99.90;;;;;;4993903;28;20425;-73
2022/03/23 05:25:40;;;;;;;0.90;0.90;;;4.10;99.90;;;;;;5002297;28;20885;-73
2022/03/23 05:28:10;;;;;;;0.40;0.20;;;4.00;99.90;;;;;;4998946;28;20375;-73
2022/03/23 05:30:36;;;;;;;0.40;0.20;;;3.90;99.90;;;;;;5000059;28;20426;-73
2022/03/23 05:33:02;;;;;;;0.50;0.50;;;3.70;99.90;;;;;;5003096;28;20389;-73
2022/03/23 05:35:28;;;;;;;0.40;0.20;;;3.90;99.90;;;;;;5006678;28;20393;-73
2022/03/23 05:37:54;;;;;;;0.60;0.50;;;4.00;99.90;;;;;;4987418;28;20417;-72
2022/03/23 05:40:21;;;;;;;0.40;0.20;;;3.90;99.90;;;;;;5003493;28;20405;-73
2022/03/23 05:42:47;;;;;;;0.60;0.60;;;4.10;99.90;;;;;;5001811;28;20711;-72
2022/03/23 05:45:13;;;;;;;0.40;0.30;;;4.10;99.90;;;;;;5010951;28;20529;-73
2022/03/23 05:47:40;;;;;;;0.40;0.28;;;4.10;99.90;;;;;;5008290;28;20385;-72
2022/03/23 05:50:07;;;;;;;0.40;0.20;;;4.20;99.90;;;;;;5006399;28;20477;-73
2022/03/23 05:52:34;;;;;;;0.47;0.43;;;4.10;99.90;;;;;;5012582;28;20495;-73
2022/03/23 05:55:01;;;;;;;0.40;0.20;;;4.10;99.90;;;;;;5007419;28;20398;-73
2022/03/23 05:57:27;;;;;;;0.40;0.20;;;4.10;99.90;;;;;;5012175;28;20393;-73
2022/03/23 05:59:53;;;;;;;0.40;0.30;;;3.90;99.90;;;;;;4994781;28;20393;-72
2022/03/23 06:02:18;;;;;;;0.40;0.20;;;3.90;99.90;;;;;;5008639;28;20805;-72
2022/03/23 06:04:44;;;;;;;1.10;0.80;;;3.90;99.90;;;;;;5006910;28;20464;-73
2022/03/23 06:07:10;;;;;;;0.40;0.20;;;3.90;99.90;;;;;;5010802;28;20401;-73
2022/03/23 06:09:36;;;;;;;0.90;0.90;;;3.80;99.90;;;;;;5009983;28;20754;-73
2022/03/23 06:12:04;;;;;;;0.60;0.50;;;3.90;99.90;;;;;;5005399;28;20840;-73
2022/03/23 06:14:30;;;;;;;0.40;0.20;;;3.80;99.90;;;;;;5011303;28;20415;-73
2022/03/23 06:16:56;;;;;;;0.40;0.30;;;3.90;99.90;;;;;;5009835;28;20448;-74
2022/03/23 06:19:24;;;;;;;0.40;0.30;;;4.00;99.90;;;;;;5010433;28;20749;-75
2022/03/23 06:21:50;;;;;;;0.40;0.20;;;4.30;99.90;;;;;;5003430;28;21217;-75
2022/03/23 06:24:15;;;;;;;0.40;0.30;;;4.20;99.90;;;;;;5004954;28;20416;-74
2022/03/23 06:26:41;;;;;;;0.40;0.20;;;4.30;99.90;;;;;;5009795;28;20385;-74
2022/03/23 06:29:07;;;;;;;0.70;0.70;;;4.30;99.90;;;;;;5007655;28;20840;-74
2022/03/23 06:31:33;;;;;;;0.40;0.20;;;4.50;99.90;;;;;;5000899;28;20417;-74
2022/03/23 06:33:59;;;;;;;0.40;0.40;;;4.60;99.90;;;;;;5003832;28;20742;-74
2022/03/23 06:36:25;;;;;;;0.40;0.20;;;4.50;99.90;;;;;;5002439;28;20389;-75
2022/03/23 06:38:51;;;;;;;0.40;0.30;;;4.60;99.90;;;;;;5003230;28;20905;-75
2022/03/23 06:41:17;;;;;;;0.40;0.40;;;4.60;99.90;;;;;;5007387;28;20401;-75
2022/03/23 06:43:45;;;;;;;0.40;0.30;;;4.60;99.90;;;;;;5003412;28;20794;-75
2022/03/23 06:46:11;;;;;;;0.70;0.70;;;4.80;99.90;;;;;;5004416;28;20395;-75
2022/03/23 06:48:37;;;;;;;0.40;0.30;;;4.80;99.90;;;;;;5009403;28;20400;-74
2022/03/23 06:51:03;;;;;;;0.40;0.40;;;4.80;99.90;;;;;;5006600;28;20550;-75
2022/03/23 06:53:29;;;;;;;0.40;0.40;;;4.90;99.90;;;;;;5003728;28;20391;-74
2022/03/23 06:55:55;;;;;;;0.40;0.20;;;5.00;99.90;;;;;;5007810;28;20938;-74
2022/03/23 06:58:21;;;;;;;0.40;0.40;;;5.20;99.80;;;;;;5005289;28;20383;-75
2022/03/23 07:00:47;;;;;;;0.40;0.30;;;5.30;98.70;;;;;;5004913;28;20813;-74
2022/03/23 07:03:12;;;;;;;0.60;0.60;;;5.40;99.50;;;;;;5003382;28;20383;-74
2022/03/23 07:05:38;;;;;;;0.50;0.50;;;5.50;99.00;;;;;;5012942;28;20388;-75
2022/03/23 07:10:50;;;;;;;0.60;0.60;;;5.70;98.30;;;;;;5001574;28;20500;-75
2022/03/23 07:13:16;;;;;;;1.20;1.10;;;5.90;98.70;;;;;;5014978;28;20393;-74
2022/03/23 07:15:42;;;;;;;0.40;0.20;;;5.90;97.90;;;;;;5013046;28;20393;-74
2022/03/23 07:18:09;;;;;;;0.40;0.30;;;6.00;97.90;;;;;;5010362;28;20428;-74
2022/03/23 07:20:35;;;;;;;0.40;0.20;;;6.10;97.40;;;;;;5011339;28;20392;-74
2022/03/23 07:23:01;;;;;;;0.50;0.40;;;6.20;96.40;;;;;;5013860;28;20387;-74
2022/03/23 07:25:27;;;;;;;0.70;0.50;;;6.20;95.90;;;;;;5012651;28;20380;-74
2022/03/23 07:27:52;;;;;;;0.40;0.20;;;6.30;95.40;;;;;;5011034;28;20400;-74
2022/03/23 07:30:19;;;;;;;0.40;0.40;;;6.30;95.10;;;;;;5013502;28;20385;-74
2022/03/23 07:32:51;;;;;;;0.50;0.50;;;6.50;94.00;;;;;;5010580;28;20401;-74
2022/03/23 07:35:17;;;;;;;0.50;0.50;;;6.40;94.00;;;;;;5012821;28;20397;-73
2022/03/23 07:37:44;;;;;;;0.40;0.20;;;6.50;94.20;;;;;;5012455;28;20519;-74
2022/03/23 07:40:11;;;;;;;0.40;0.20;;;6.60;94.00;;;;;;5013312;28;20443;-74
2022/03/23 07:42:36;;;;;;;0.40;0.20;;;6.60;95.20;;;;;;5011323;28;20491;-74
2022/03/23 07:45:02;;;;;;;0.50;0.50;;;6.70;95.20;;;;;;5012822;28;20468;-74
2022/03/23 07:47:28;;;;;;;1.00;1.00;;;6.90;94.10;;;;;;5012435;28;20389;-74
2022/03/23 07:49:54;;;;;;;0.60;0.60;;;7.10;92.80;;;;;;5012522;28;20389;-74
2022/03/23 07:52:20;;;;;;;1.30;0.90;;;7.30;92.10;;;;;;5013454;28;20421;-74
2022/03/23 07:54:45;;;;;;;0.40;0.30;;;7.40;92.70;;;;;;5012889;28;20380;-74
2022/03/23 07:57:11;;;;;;;0.65;0.65;;;7.50;92.00;;;;;;5013425;28;20460;-73
2022/03/23 07:59:38;;;;;;;1.10;1.10;;;7.60;90.30;;;;;;5013298;28;20388;-73
2022/03/23 08:02:04;;;;;;;0.40;0.20;;;7.70;90.30;;;;;;5012565;28;20388;-73
2022/03/23 08:04:30;;;;;;;1.05;1.05;;;7.80;90.30;;;;;;5013429;28;20380;-73
2022/03/23 08:06:59;;;;;;;1.00;0.40;;;7.90;89.60;;;;;;5012280;28;20893;-74
2022/03/23 08:09:24;;;;;;;0.40;0.30;;;8.00;89.60;;;;;;5012779;28;20404;-73
2022/03/23 08:11:50;;;;;;;0.40;0.40;;;8.10;88.00;;;;;;5012972;28;20439;-73
2022/03/23 08:14:16;;;;;;;0.40;0.30;;;8.20;87.20;;;;;;5012369;28;20389;-73
2022/03/23 08:16:42;;;;;;;1.00;1.00;;;8.40;87.60;;;;;;5013181;28;20462;-73
2022/03/23 08:19:07;;;;;;;0.50;0.50;;;8.50;86.80;;;;;;5011835;28;20435;-74
2022/03/23 08:21:34;;;;;;;3.30;1.00;;;8.60;86.40;;;;;;5013002;28;20484;-74
2022/03/23 08:24:00;;;;;;;0.40;0.30;;;8.80;85.70;;;;;;5012993;28;20410;-73
2022/03/23 08:26:26;;;;;;;0.40;0.30;;;8.90;83.90;;;;;;5010921;28;20712;-74
2022/03/23 08:28:52;;;;;;;0.40;0.30;;;9.10;84.50;;;;;;5012596;28;20949;-73
2022/03/23 08:31:18;;;;;;;1.10;1.00;;;9.20;79.30;;;;;;5011951;28;20443;-73
2022/03/23 08:33:44;;;;;;;0.80;0.80;;;9.30;76.60;;;;;;5012742;28;20452;-73
2022/03/23 08:36:10;;;;;;;0.57;0.45;;;9.70;74.60;;;;;;5012385;28;20900;-73
2022/03/23 08:38:37;;;;;;;0.40;0.20;;;9.90;73.80;;;;;;5012291;28;20753;-74
2022/03/23 08:41:06;;;;;;;0.43;0.35;;;9.90;72.50;;;;;;5012202;28;20396;-73
2022/03/23 08:43:32;;;;;;;1.00;1.00;;;10.00;71.80;;;;;;5011713;28;20471;-74
2022/03/23 08:45:59;;;;;;;0.40;0.30;;;10.20;71.10;;;;;;5012285;28;20927;-73
2022/03/23 08:48:26;;;;;;;0.40;0.20;;;10.20;71.30;;;;;;5012074;28;20409;-73
2022/03/23 08:50:52;;;;;;;0.40;0.20;;;10.30;70.70;;;;;;5012689;28;20495;-73
2022/03/23 08:53:19;;;;;;;0.40;0.30;;;10.30;71.70;;;;;;5012982;28;20408;-74
2022/03/23 08:55:45;;;;;;;0.70;0.70;;;10.40;71.80;;;;;;5012695;28;20431;-73
2022/03/23 08:58:11;;;;;;;0.40;0.38;;;10.50;71.80;;;;;;5012233;28;20377;-73
2022/03/23 09:00:40;;;;;;;0.40;0.30;;;10.60;72.30;;;;;;5011534;28;20373;-73
2022/03/23 09:03:06;;;;;;;0.40;0.30;;;10.70;73.10;;;;;;5011560;28;20384;-74
2022/03/23 09:05:32;;;;;;;0.40;0.30;;;10.80;73.30;;;;;;5011431;28;20388;-74
2022/03/23 09:07:59;;;;;;;0.40;0.20;;;10.90;72.80;;;;;;5011831;28;20758;-74
2022/03/23 09:10:25;;;;;;;1.10;1.00;;;10.90;73.10;;;;;;4997052;28;20513;-73
2022/03/23 09:12:51;;;;;;;1.10;1.00;;;10.90;71.40;;;;;;4991567;28;20546;-73
2022/03/23 09:15:17;;;;;;;1.60;1.20;;;11.00;69.70;;;;;;4992526;28;20394;-73
2022/03/23 09:17:44;;;;;;;0.70;0.70;;;11.10;69.10;;;;;;4991389;28;20387;-74
2022/03/23 09:20:12;;;;;;;0.40;0.30;;;11.10;68.20;;;;;;4992424;28;20394;-73
2022/03/23 09:22:41;;;;;;;0.90;0.90;;;11.20;67.30;;;;;;4991131;28;20406;-73
2022/03/23 09:25:10;;;;;;;0.40;0.38;;;11.20;66.70;;;;;;4991957;28;20429;-73
2022/03/23 09:27:38;;;;;;;0.60;0.60;;;11.20;68.00;;;;;;4992049;28;20383;-73
2022/03/23 09:30:10;;;;;;;0.40;0.30;;;11.30;68.30;;;;;;4990013;28;20987;-73
2022/03/23 09:32:36;;;;;;;0.40;0.30;;;11.40;69.20;;;;;;4992054;28;20895;-73
2022/03/23 09:35:03;;;;;;;1.10;1.00;;;11.40;68.50;;;;;;4991289;28;20733;-74
2022/03/23 09:40:19;;;;;;;0.40;0.30;;;11.30;68.20;;;;;;4991214;28;20502;-74
2022/03/23 09:42:45;;;;;;;0.60;0.50;;;11.50;69.30;;;;;;4991863;28;20383;-73
2022/03/23 09:45:29;;;;;;;0.40;0.30;;;11.70;69.10;;;;;;4991091;28;20393;-73
2022/03/23 09:48:02;;;;;;;2.60;1.30;;;11.70;67.10;;;;;;4991464;28;20383;-73
2022/03/23 09:50:30;;;;;;;0.70;0.50;;;11.70;66.60;;;;;;4991797;28;20486;-73
2022/03/23 09:52:56;;;;;;;0.40;0.30;;;11.70;67.30;;;;;;4991898;28;20398;-73
2022/03/23 09:55:24;;;;;;;0.40;0.40;;;11.90;66.60;;;;;;4990970;28;20375;-73
2022/03/23 09:57:57;;;;;;;0.40;0.40;;;11.90;65.90;;;;;;4990242;28;20402;-73
2022/03/23 10:00:27;;;;;;;1.10;1.00;;;11.90;64.70;;;;;;4990847;28;20529;-73
2022/03/23 10:03:12;;;;;;;0.60;0.60;;;12.10;65.20;;;;;;4990522;28;20764;-72
2022/03/23 10:05:49;;;;;;;0.57;0.57;;;12.10;63.40;;;;;;4991354;28;20469;-73
2022/03/23 10:08:39;;;;;;;0.80;0.80;;;12.10;63.70;;;;;;4990857;28;20403;-73
2022/03/23 10:11:29;;;;;;;0.40;0.32;;;12.20;64.70;;;;;;5009721;28;20408;-73
2022/03/23 10:14:10;;;;;;;1.05;0.95;;;12.30;64.60;;;;;;5011067;28;20503;-73
2022/03/23 10:16:59;;;;;;;1.30;1.20;;;12.40;63.10;;;;;;5009857;28;21582;-73
2022/03/23 10:19:25;;;;;;;0.70;0.70;;;12.60;62.70;;;;;;5010282;28;20385;-73
2022/03/23 10:21:52;;;;;;;0.70;0.70;;;12.50;62.40;;;;;;5009906;28;20400;-72
2022/03/23 10:24:18;;;;;;;0.40;0.20;;;12.70;62.40;;;;;;5010411;28;20475;-73
2022/03/23 10:26:44;;;;;;;0.40;0.30;;;12.60;62.00;;;;;;5011224;28;20528;-73
2022/03/23 10:29:24;;;;;;;0.40;0.20;;;12.70;61.80;;;;;;5011157;28;20377;-73
2022/03/23 10:32:10;;;;;;;0.40;0.40;;;12.90;60.60;;;;;;5009777;28;20420;-74
2022/03/23 10:34:40;;;;;;;0.80;0.80;;;13.00;59.20;;;;;;5010073;28;20432;-74
2022/03/23 10:37:06;;;;;;;0.80;0.80;;;13.00;59.60;;;;;;5010610;28;20446;-74
2022/03/23 10:39:32;;;;;;;0.90;0.90;;;13.10;58.80;;;;;;5009653;28;20863;-73
2022/03/23 10:42:04;;;;;;;1.42;1.33;;;13.40;58.80;;;;;;5010550;28;20403;-73
2022/03/23 10:44:30;;;;;;;0.50;0.50;;;13.50;58.40;;;;;;5008904;28;20859;-73
2022/03/23 10:46:58;;;;;;;1.80;1.10;;;13.50;58.60;;;;;;5010543;28;20388;-74
2022/03/23 10:49:37;;;;;;;1.20;1.20;;;13.50;57.40;;;;;;5010654;28;20871;-74
2022/03/23 10:52:14;;;;;;;1.90;0.90;;;13.70;58.00;;;;;;5010373;28;20939;-73
2022/03/23 10:54:58;;;;;;;2.60;0.80;;;13.80;57.60;;;;;;5009874;28;20389;-74
2022/03/23 10:57:58;;;;;;;1.30;0.80;;;13.80;57.40;;;;;;5010498;28;20854;-74
2022/03/23 11:00:38;;;;;;;0.70;0.47;;;14.00;56.70;;;;;;5010374;28;20384;-73
2022/03/23 11:03:06;;;;;;;0.40;0.40;;;14.30;56.20;;;;;;5010298;28;20400;-74
2022/03/23 11:05:44;;;;;;;1.30;0.70;;;14.30;56.40;;;;;;5009369;28;20414;-74
2022/03/23 11:08:20;;;;;;;5.40;1.63;;;14.20;56.60;;;;;;5010567;28;20404;-72
2022/03/23 11:16:54;;;;;;;0.40;0.40;;;15.00;56.50;;;;;;4968618;28;20407;-74
2022/03/23 11:19:24;;;;;;;1.20;0.60;;;15.00;55.20;;;;;;4986154;28;20406;-74
2022/03/23 11:22:01;;;;;;;1.45;0.90;;;15.10;55.00;;;;;;4990708;28;20402;-74
2022/03/23 11:24:36;;;;;;;0.40;0.30;;;15.50;55.60;;;;;;4990758;28;20486;-74
2022/03/23 11:27:03;;;;;;;6.80;2.90;;;15.60;54.10;;;;;;4992342;28;20386;-73
2022/03/23 11:29:31;;;;;;;2.00;1.50;;;15.60;53.60;;;;;;4994245;28;20723;-73
2022/03/23 11:32:00;;;;;;;1.40;1.30;;;15.70;52.80;;;;;;4992542;28;20422;-73
2022/03/23 11:34:30;;;;;;;1.00;0.90;;;15.70;53.50;;;;;;4992852;28;20883;-74
2022/03/23 11:36:56;;;;;;;1.40;1.30;;;15.90;52.40;;;;;;4994189;28;20744;-74
2022/03/23 11:39:22;;;;;;;1.30;1.00;;;16.90;50.30;;;;;;4992021;28;20395;-74
2022/03/23 11:41:51;;;;;;;0.40;0.40;;;17.70;49.80;;;;;;4994336;28;20393;-73
2022/03/23 11:44:22;;;;;;;0.40;0.30;;;18.30;48.10;;;;;;4993121;28;20733;-75
2022/03/23 11:46:49;;;;;;;0.40;0.30;;;19.00;47.90;;;;;;4993989;28;20383;-74
2022/03/23 11:49:26;;;;;;;0.93;0.57;;;19.30;45.20;;;;;;4993075;28;20716;-73
2022/03/23 11:52:05;;;;;;;0.50;0.50;;;19.50;43.90;;;;;;4993924;28;20450;-74
2022/03/23 11:57:54;;;;;;;0.60;0.52;;;19.70;42.60;;;;;;4993749;28;20441;-73
2022/03/23 12:00:28;;;;;;;0.70;0.70;;;20.00;42.70;;;;;;4992922;28;20445;-74
2022/03/23 12:02:57;;;;;;;0.40;0.25;;;19.60;42.90;;;;;;4993727;28;20398;-72
2022/03/23 12:05:24;;;;;;;0.40;0.22;;;18.90;42.60;;;;;;4992898;28;20382;-74
2022/03/23 12:07:50;;;;;;;1.40;0.90;;;19.80;44.20;;;;;;4993899;28;20882;-73
2022/03/23 12:10:28;;;;;;;1.60;0.80;;;19.20;44.50;;;;;;5006549;28;20461;-75
2022/03/23 12:12:55;;;;;;;0.40;0.40;;;19.10;45.10;;;;;;5012683;28;20413;-74
2022/03/23 12:15:23;;;;;;;1.30;0.80;;;19.10;43.80;;;;;;5012224;28;20467;-74
2022/03/23 12:17:55;;;;;;;2.10;1.20;;;20.00;43.20;;;;;;5013221;28;20392;-74
2022/03/23 12:20:33;;;;;;;0.80;0.80;;;19.00;41.80;;;;;;5013048;28;20389;-73
2022/03/23 12:23:14;;;;;;;0.80;0.60;;;19.80;42.70;;;;;;5012902;28;20413;-74
2022/03/23 12:26:08;;;;;;;1.05;0.93;;;20.50;41.40;;;;;;5012070;28;20403;-73
2022/03/23 12:28:53;;;;;;;1.90;1.10;;;20.00;40.50;;;;;;5001887;28;20429;-74
2022/03/23 12:31:18;;;;;;;1.58;0.95;;;20.40;40.40;;;;;;5012833;28;20738;-72
2022/03/23 12:34:04;;;;;;;0.50;0.50;;;19.90;40.00;;;;;;5011881;28;20391;-74
2022/03/23 12:36:59;;;;;;;1.60;0.90;;;19.50;40.70;;;;;;5011362;28;20480;-75
2022/03/23 12:39:27;;;;;;;0.80;0.73;;;19.50;44.00;;;;;;5012631;28;20450;-74
2022/03/23 12:41:55;;;;;;;0.43;0.40;;;18.90;42.10;;;;;;5011480;28;21000;-74
2022/03/23 12:44:30;;;;;;;0.40;0.20;;;20.20;42.00;;;;;;5012409;28;20439;-73
2022/03/23 12:46:56;;;;;;;0.45;0.38;;;19.10;40.70;;;;;;5011733;28;20408;-73
2022/03/23 12:58:20;;;;;;;1.13;1.10;;;19.50;42.30;;;;;;5011419;28;20919;-72
2022/03/23 13:00:48;;;;;;;0.70;0.70;;;19.90;41.00;;;;;;5010958;28;20405;-74
2022/03/23 13:03:19;;;;;;;0.40;0.30;;;20.90;40.30;;;;;;5012307;28;20746;-74
2022/03/23 13:06:00;;;;;;;0.50;0.50;;;21.00;39.70;;;;;;5011781;28;20858;-74
2022/03/23 13:08:38;;;;;;;1.40;1.30;;;21.20;38.90;;;;;;5012206;28;20452;-74
2022/03/23 13:11:09;;;;;;;0.40;0.30;;;19.90;37.80;;;;;;5011318;28;20919;-74
2022/03/23 13:13:37;;;;;;;1.70;1.00;;;20.80;42.60;;;;;;5012037;28;20488;-74
2022/03/23 13:16:08;;;;;;;1.02;1.02;;;21.60;39.10;;;;;;5011340;28;20389;-74
2022/03/23 13:18:37;;;;;;;9.65;1.70;;;21.00;38.30;;;;;;5012100;28;20467;-74
2022/03/23 13:21:08;;;;;;;1.60;1.48;;;21.40;39.30;;;;;;5010908;28;20432;-74
2022/03/23 13:23:35;;;;;;;0.88;0.88;;;20.10;39.90;;;;;;5011917;28;20392;-74
2022/03/23 13:26:12;;;;;;;0.75;0.75;;;21.10;40.60;;;;;;5011060;28;20489;-73
2022/03/23 13:28:47;;;;;;;1.40;1.30;;;21.80;38.80;;;;;;5011712;28;20726;-73
2022/03/23 13:31:16;;;;;;;1.50;1.40;;;21.90;37.40;;;;;;5009590;28;20773;-72